createdAt,value
2023-03-08T00:02:00.492Z,99.90
2023-03-08T00:04:30.295Z,99.90
2023-03-08T00:07:00.545Z,99.90
2023-03-08T00:09:30.345Z,99.90
2023-03-08T00:12:00.670Z,99.90
2023-03-08T00:14:33.104Z,99.90
2023-03-08T00:17:03.375Z,99.90
2023-03-08T00:19:33.220Z,99.90
2023-03-08T00:22:03.520Z,99.90
2023-03-08T00:24:33.772Z,99.90
2023-03-08T00:27:03.922Z,99.90
2023-03-08T00:29:36.567Z,99.90
2023-03-08T00:32:06.569Z,99.90
2023-03-08T00:34:36.373Z,99.90
2023-03-08T00:37:07.088Z,99.90
2023-03-08T00:39:37.457Z,99.90
2023-03-08T00:42:09.167Z,99.90
2023-03-08T00:44:41.544Z,99.90
2023-03-08T00:47:12.245Z,99.90
2023-03-08T00:49:43.043Z,99.90
2023-03-08T00:52:13.378Z,99.90
2023-03-08T00:54:43.315Z,99.90
2023-03-08T00:57:13.206Z,99.90
2023-03-08T00:59:45.779Z,99.90
2023-03-08T01:02:16.494Z,99.90
2023-03-08T01:04:47.625Z,99.90
2023-03-08T01:07:18.632Z,99.90
2023-03-08T01:09:48.518Z,99.90
2023-03-08T01:12:21.944Z,99.90
2023-03-08T01:14:54.394Z,99.90
2023-03-08T01:17:25.030Z,99.90
2023-03-08T01:19:55.148Z,99.90
2023-03-08T01:22:25.594Z,99.90
2023-03-08T01:24:56.484Z,99.90
2023-03-08T01:27:27.019Z,99.90
2023-03-08T01:29:59.611Z,99.90
2023-03-08T01:32:29.889Z,99.90
2023-03-08T01:35:04.648Z,99.90
2023-03-08T01:37:35.316Z,99.90
2023-03-08T01:40:06.841Z,99.90
2023-03-08T01:42:40.706Z,99.90
2023-03-08T01:45:46.159Z,99.90
2023-03-08T01:48:20.971Z,99.90
2023-03-08T01:51:05.297Z,99.90
2023-03-08T01:53:36.362Z,99.90
2023-03-08T01:56:08.366Z,99.90
2023-03-08T01:58:39.253Z,99.90
2023-03-08T02:01:09.744Z,99.90
2023-03-08T02:03:42.306Z,99.90
2023-03-08T02:06:12.475Z,99.90
2023-03-08T02:08:42.654Z,99.90
2023-03-08T02:11:13.514Z,99.90
2023-03-08T02:13:44.460Z,99.90
2023-03-08T02:16:17.018Z,99.90
2023-03-08T02:19:01.552Z,99.90
2023-03-08T02:21:33.802Z,99.90
2023-03-08T02:24:19.748Z,99.90
2023-03-08T02:26:52.893Z,99.90
2023-03-08T02:29:22.701Z,99.90
2023-03-08T02:31:55.158Z,99.90
2023-03-08T02:34:25.082Z,99.90
2023-03-08T02:36:55.553Z,99.90
2023-03-08T02:39:27.959Z,99.90
2023-03-08T02:41:58.425Z,99.90
2023-03-08T02:44:28.546Z,99.90
2023-03-08T02:46:58.666Z,99.90
2023-03-08T02:49:28.535Z,99.90
2023-03-08T02:52:00.340Z,99.90
2023-03-08T02:54:32.979Z,99.90
2023-03-08T02:57:04.337Z,99.90
2023-03-08T02:59:34.313Z,99.90
2023-03-08T03:02:04.685Z,99.90
2023-03-08T03:04:35.718Z,99.90
2023-03-08T03:07:06.205Z,99.90
2023-03-08T03:09:40.186Z,99.90
2023-03-08T03:12:11.058Z,99.90
2023-03-08T03:14:43.449Z,99.90
2023-03-08T03:17:13.721Z,99.90
2023-03-08T03:19:43.538Z,99.90
2023-03-08T03:22:13.440Z,99.90
2023-03-08T03:24:46.510Z,99.90
2023-03-08T03:27:16.403Z,99.90
2023-03-08T03:29:48.163Z,99.90
2023-03-08T03:32:20.476Z,99.90
2023-03-08T03:34:50.497Z,99.90
2023-03-08T03:37:23.157Z,99.90
2023-03-08T03:39:55.544Z,99.90
2023-03-08T03:42:26.886Z,99.90
2023-03-08T03:45:06.810Z,99.90
2023-03-08T03:47:37.764Z,99.90
2023-03-08T03:50:10.585Z,99.90
2023-03-08T03:52:49.682Z,99.90
2023-03-08T03:55:22.236Z,99.90
2023-03-08T03:57:52.890Z,99.90
2023-03-08T04:00:24.631Z,99.90
2023-03-08T04:03:06.100Z,99.90
2023-03-08T04:05:40.033Z,99.90
2023-03-08T04:08:11.806Z,99.90
2023-03-08T04:10:47.134Z,99.90
2023-03-08T04:13:18.220Z,99.90
2023-03-08T04:15:48.217Z,99.90
2023-03-08T04:18:18.591Z,99.90
2023-03-08T04:20:50.334Z,99.90
2023-03-08T04:23:20.239Z,99.90
2023-03-08T04:25:54.154Z,99.90
2023-03-08T04:28:25.498Z,99.90
2023-03-08T04:30:55.417Z,99.90
2023-03-08T04:33:26.053Z,99.90
2023-03-08T04:35:56.095Z,99.90
2023-03-08T04:38:28.364Z,99.90
2023-03-08T04:41:11.825Z,99.90
2023-03-08T04:43:52.420Z,99.90
2023-03-08T04:46:29.134Z,99.90
2023-03-08T04:49:01.426Z,99.90
2023-03-08T04:51:36.758Z,99.90
2023-03-08T04:54:10.875Z,99.90
2023-03-08T04:56:49.437Z,99.90
2023-03-08T04:59:20.101Z,99.90
2023-03-08T05:01:49.989Z,99.90
2023-03-08T05:04:21.029Z,99.90
2023-03-08T05:06:51.436Z,99.90
2023-03-08T05:09:26.506Z,99.90
2023-03-08T05:12:00.736Z,99.90
2023-03-08T05:14:40.485Z,99.90
2023-03-08T05:17:10.880Z,99.90
2023-03-08T05:19:40.720Z,99.90
2023-03-08T05:22:11.521Z,99.90
2023-03-08T05:24:48.391Z,99.90
2023-03-08T05:27:22.065Z,99.90
2023-03-08T05:29:54.865Z,99.90
2023-03-08T05:32:25.405Z,99.90
2023-03-08T05:34:56.191Z,99.90
2023-03-08T05:37:34.016Z,99.90
2023-03-08T05:40:08.696Z,99.90
2023-03-08T05:42:44.651Z,99.90
2023-03-08T05:45:16.470Z,99.90
2023-03-08T05:47:46.613Z,99.90
2023-03-08T05:50:16.613Z,99.90
2023-03-08T05:52:47.841Z,99.90
2023-03-08T05:55:22.211Z,99.90
2023-03-08T05:57:54.901Z,99.90
2023-03-08T06:00:26.077Z,99.90
2023-03-08T06:03:04.003Z,99.90
2023-03-08T06:05:37.514Z,99.90
2023-03-08T06:08:08.215Z,99.90
2023-03-08T06:10:37.991Z,99.90
2023-03-08T06:13:11.765Z,99.90
2023-03-08T06:15:41.557Z,99.90
2023-03-08T06:18:11.844Z,99.90
2023-03-08T06:20:41.724Z,99.90
2023-03-08T06:23:11.886Z,99.90
2023-03-08T06:25:41.795Z,99.90
2023-03-08T06:28:16.814Z,99.90
2023-03-08T06:30:46.714Z,99.90
2023-03-08T06:33:16.914Z,99.90
2023-03-08T06:35:58.120Z,99.90
2023-03-08T06:38:29.874Z,99.90
2023-03-08T06:41:00.690Z,99.90
2023-03-08T06:43:33.501Z,99.90
2023-03-08T06:46:07.252Z,99.90
2023-03-08T06:48:37.881Z,99.90
2023-03-08T06:51:08.865Z,99.90
2023-03-08T06:53:39.206Z,99.90
2023-03-08T06:56:11.815Z,99.90
2023-03-08T06:58:44.704Z,99.90
2023-03-08T07:01:19.206Z,99.90
2023-03-08T07:03:50.229Z,99.90
2023-03-08T07:06:20.059Z,99.90
2023-03-08T07:08:50.131Z,99.90
2023-03-08T07:11:19.892Z,99.90
2023-03-08T07:13:52.560Z,99.90
2023-03-08T07:16:22.378Z,99.90
2023-03-08T07:18:52.566Z,99.90
2023-03-08T07:21:22.345Z,99.90
2023-03-08T07:23:55.004Z,99.90
2023-03-08T07:26:24.851Z,99.90
2023-03-08T07:28:58.296Z,99.90
2023-03-08T07:31:29.099Z,99.90
2023-03-08T07:33:59.379Z,99.90
2023-03-08T07:36:29.157Z,99.90
2023-03-08T07:38:59.002Z,99.90
2023-03-08T07:41:31.794Z,99.90
2023-03-08T07:44:04.912Z,99.90
2023-03-08T07:46:34.700Z,99.90
2023-03-08T07:49:04.559Z,99.90
2023-03-08T07:51:34.344Z,99.90
2023-03-08T07:54:04.180Z,99.90
2023-03-08T07:56:36.182Z,99.90
2023-03-08T07:59:08.572Z,99.90
2023-03-08T08:01:38.492Z,99.90
2023-03-08T08:04:11.612Z,90.60
2023-03-08T08:06:41.866Z,47.20
2023-03-08T08:09:15.167Z,27.00
2023-03-08T08:11:45.126Z,1.00
2023-03-08T08:14:17.515Z,1.00
2023-03-08T08:16:47.285Z,1.00
2023-03-08T08:19:18.146Z,1.00
2023-03-08T08:21:47.987Z,1.00
2023-03-08T08:24:17.914Z,1.00
2023-03-08T08:26:47.758Z,1.00
2023-03-08T08:29:20.231Z,1.00
2023-03-08T08:31:52.805Z,1.00
2023-03-08T08:34:22.846Z,1.00
2023-03-08T08:36:52.652Z,1.00
2023-03-08T08:39:22.744Z,1.00
2023-03-08T08:41:52.572Z,1.00
2023-03-08T08:44:25.731Z,1.00
2023-03-08T08:46:55.572Z,1.00
2023-03-08T08:49:26.116Z,1.00
2023-03-08T08:51:55.933Z,1.00
2023-03-08T08:54:25.956Z,1.00
2023-03-08T08:56:55.947Z,1.00
2023-03-08T08:59:28.578Z,1.00
2023-03-08T09:01:58.351Z,1.00
2023-03-08T09:04:28.382Z,1.00
2023-03-08T09:06:58.410Z,1.00
2023-03-08T09:09:28.701Z,1.00
2023-03-08T09:11:58.858Z,1.00
2023-03-08T09:14:32.805Z,1.00
2023-03-08T09:17:02.685Z,1.00
2023-03-08T09:19:32.521Z,1.00
2023-03-08T09:22:02.325Z,1.00
2023-03-08T09:24:32.524Z,1.00
2023-03-08T09:27:02.385Z,1.00
2023-03-08T09:29:36.617Z,1.00
2023-03-08T09:32:06.950Z,1.00
2023-03-08T09:34:37.473Z,99.90
2023-03-08T09:37:08.370Z,99.90
2023-03-08T09:39:38.832Z,99.90
2023-03-08T09:42:09.933Z,99.90
2023-03-08T09:44:55.439Z,99.90
2023-03-08T09:47:44.679Z,99.90
2023-03-08T09:50:27.701Z,99.90
2023-03-08T09:53:01.433Z,99.90
2023-03-08T09:55:34.745Z,99.90
2023-03-08T09:58:07.980Z,99.90
2023-03-08T10:00:41.525Z,99.90
2023-03-08T10:03:36.419Z,99.90
2023-03-08T10:06:14.520Z,99.90
2023-03-08T10:08:52.254Z,99.90
2023-03-08T10:11:27.066Z,99.90
2023-03-08T10:13:59.633Z,99.90
2023-03-08T10:16:38.061Z,99.90
2023-03-08T10:19:17.266Z,99.90
2023-03-08T10:21:47.962Z,99.90
2023-03-08T10:24:26.779Z,1.00
2023-03-08T10:26:57.873Z,1.00
2023-03-08T10:29:28.065Z,99.90
2023-03-08T10:32:00.425Z,99.90
2023-03-08T10:34:34.175Z,99.90
2023-03-08T10:37:06.817Z,99.90
2023-03-08T10:39:39.078Z,99.90
2023-03-08T10:42:16.939Z,99.90
2023-03-08T10:44:54.985Z,99.90
2023-03-08T10:47:30.293Z,99.90
2023-03-08T10:50:09.585Z,99.90
2023-03-08T10:52:39.599Z,99.90
2023-03-08T10:55:14.800Z,99.90
2023-03-08T10:57:51.075Z,99.90
2023-03-08T11:00:39.289Z,99.90
2023-03-08T11:03:23.219Z,1.00
2023-03-08T11:05:58.984Z,1.00
2023-03-08T11:08:31.123Z,1.00
2023-03-08T11:11:08.776Z,1.00
2023-03-08T11:13:41.943Z,1.00
2023-03-08T11:16:31.267Z,1.00
2023-03-08T11:19:09.297Z,1.00
2023-03-08T11:21:47.687Z,1.00
2023-03-08T11:24:26.567Z,1.00
2023-03-08T11:27:06.560Z,1.00
2023-03-08T11:29:45.172Z,1.00
2023-03-08T11:32:29.587Z,1.00
2023-03-08T11:35:13.145Z,1.00
2023-03-08T11:37:49.066Z,1.00
2023-03-08T11:40:27.151Z,1.00
2023-03-08T11:43:21.193Z,1.00
2023-03-08T11:45:58.495Z,1.00
2023-03-08T11:48:47.517Z,1.00
2023-03-08T11:51:26.328Z,1.00
2023-03-08T11:54:09.885Z,1.00
2023-03-08T11:56:48.153Z,1.00
2023-03-08T11:59:27.756Z,99.90
2023-03-08T12:02:03.880Z,99.90
2023-03-08T12:04:38.823Z,99.90
2023-03-08T12:07:17.812Z,99.90
2023-03-08T12:09:56.669Z,99.90
2023-03-08T12:12:32.470Z,99.90
2023-03-08T12:15:09.673Z,99.90
2023-03-08T12:17:44.637Z,99.90
2023-03-08T12:20:17.146Z,99.90
2023-03-08T12:22:55.074Z,99.90
2023-03-08T12:25:29.549Z,99.90
2023-03-08T12:28:03.852Z,99.90
2023-03-08T12:30:45.430Z,99.90
2023-03-08T12:33:17.336Z,99.90
2023-03-08T12:35:55.489Z,99.90
2023-03-08T12:38:38.410Z,99.90
2023-03-08T12:41:09.741Z,99.90
2023-03-08T12:43:40.629Z,99.90
2023-03-08T12:46:13.382Z,99.90
2023-03-08T12:48:51.756Z,99.90
2023-03-08T12:51:26.970Z,99.90
2023-03-08T12:54:05.168Z,99.90
2023-03-08T12:56:38.511Z,99.90
2023-03-08T12:59:31.588Z,99.90
2023-03-08T13:02:25.610Z,99.90
2023-03-08T13:05:11.093Z,99.90
2023-03-08T13:07:50.053Z,99.90
2023-03-08T13:10:30.505Z,1.00
2023-03-08T13:13:37.452Z,1.00
2023-03-08T13:16:20.736Z,1.00
2023-03-08T13:18:54.665Z,1.00
2023-03-08T13:21:35.389Z,1.00
2023-03-08T13:24:14.598Z,1.00
2023-03-08T13:27:01.617Z,1.00
2023-03-08T13:29:34.317Z,1.00
2023-03-08T13:32:10.580Z,1.00
2023-03-08T13:34:41.835Z,99.90
2023-03-08T13:37:24.435Z,99.90
2023-03-08T13:39:58.556Z,99.90
2023-03-08T13:42:32.745Z,99.90
2023-03-08T13:45:18.838Z,99.90
2023-03-08T13:47:49.287Z,99.90
2023-03-08T13:50:23.016Z,99.90
2023-03-08T13:52:53.022Z,1.00
2023-03-08T13:55:26.774Z,1.00
2023-03-08T13:57:59.543Z,1.00
2023-03-08T14:00:32.624Z,1.00
2023-03-08T14:03:04.119Z,1.00
2023-03-08T14:05:36.518Z,1.00
2023-03-08T14:08:08.816Z,1.00
2023-03-08T14:10:42.077Z,1.00
2023-03-08T14:13:22.742Z,1.00
2023-03-08T14:15:55.355Z,1.00
2023-03-08T14:18:26.563Z,1.00
2023-03-08T14:21:08.729Z,1.00
2023-03-08T14:23:43.519Z,1.00
2023-03-08T14:26:43.661Z,1.00
2023-03-08T14:29:24.527Z,1.00
2023-03-08T14:31:57.167Z,1.00
2023-03-08T14:34:28.929Z,1.00
2023-03-08T14:37:02.577Z,1.00
2023-03-08T14:39:34.441Z,1.00
2023-03-08T14:42:13.978Z,1.00
2023-03-08T14:44:54.322Z,1.00
2023-03-08T14:47:27.278Z,1.00
2023-03-08T14:50:05.497Z,1.00
2023-03-08T14:52:39.629Z,1.00
2023-03-08T14:55:24.436Z,20.50
2023-03-08T14:57:58.029Z,67.60
2023-03-08T15:00:31.696Z,75.50
2023-03-08T15:03:02.960Z,88.40
2023-03-08T15:05:33.477Z,91.10
2023-03-08T15:08:03.687Z,94.40
2023-03-08T15:10:37.305Z,98.70
2023-03-08T15:13:08.262Z,99.80
2023-03-08T15:15:43.910Z,96.30
2023-03-08T15:18:13.785Z,90.60
2023-03-08T15:20:46.817Z,78.60
2023-03-08T15:23:22.278Z,88.00
2023-03-08T15:25:52.629Z,90.50
2023-03-08T15:28:24.873Z,94.20
2023-03-08T15:30:57.576Z,96.90
2023-03-08T15:33:27.722Z,99.40
2023-03-08T15:35:57.811Z,99.90
2023-03-08T15:38:27.638Z,99.90
2023-03-08T15:40:57.617Z,99.90
2023-03-08T15:43:27.496Z,99.90
2023-03-08T15:46:00.484Z,99.90
2023-03-08T15:48:30.739Z,99.90
2023-03-08T15:51:01.791Z,99.90
2023-03-08T15:53:35.611Z,99.90
2023-03-08T15:56:06.295Z,99.90
2023-03-08T15:58:36.057Z,99.90
2023-03-08T16:01:09.314Z,99.90
2023-03-08T16:03:39.122Z,99.90
2023-03-08T16:06:11.788Z,99.90
2023-03-08T16:08:42.508Z,99.90
2023-03-08T16:11:13.439Z,99.90
2023-03-08T16:13:44.258Z,99.90
2023-03-08T16:16:16.785Z,99.90
2023-03-08T16:18:46.997Z,99.90
2023-03-08T16:21:16.843Z,99.90
2023-03-08T16:23:46.636Z,99.90
2023-03-08T16:26:18.216Z,99.90
2023-03-08T16:28:49.651Z,99.90
2023-03-08T16:31:24.441Z,99.90
2023-03-08T16:33:54.160Z,99.90
2023-03-08T16:36:24.185Z,99.90
2023-03-08T16:38:56.474Z,99.90
2023-03-08T16:41:28.974Z,99.90
2023-03-08T16:43:59.120Z,99.90
2023-03-08T16:46:32.015Z,99.90
2023-03-08T16:49:01.895Z,99.90
2023-03-08T16:51:32.627Z,99.90
2023-03-08T16:54:02.638Z,99.90
2023-03-08T16:56:33.217Z,99.90
2023-03-08T16:59:03.812Z,99.90
2023-03-08T17:01:36.578Z,99.90
2023-03-08T17:04:06.303Z,99.90
2023-03-08T17:06:40.679Z,99.90
2023-03-08T17:09:11.915Z,99.90
2023-03-08T17:11:42.323Z,99.90
2023-03-08T17:14:14.026Z,99.90
2023-03-08T17:16:46.851Z,99.90
2023-03-08T17:19:16.603Z,99.90
2023-03-08T17:21:47.081Z,99.90
2023-03-08T17:24:17.622Z,99.90
2023-03-08T17:26:50.510Z,99.90
2023-03-08T17:29:20.841Z,99.90
2023-03-08T17:31:53.917Z,99.90
2023-03-08T17:34:24.779Z,99.90
2023-03-08T17:36:55.004Z,99.90
2023-03-08T17:39:25.279Z,99.90
2023-03-08T17:41:55.067Z,99.90
2023-03-08T17:44:24.811Z,99.90
2023-03-08T17:46:57.155Z,99.90
2023-03-08T17:49:26.895Z,99.90
2023-03-08T17:51:57.007Z,99.90
2023-03-08T17:54:26.770Z,99.90
2023-03-08T17:56:56.749Z,99.90
2023-03-08T17:59:26.512Z,99.90
2023-03-08T18:01:58.958Z,99.90
2023-03-08T18:04:28.835Z,99.90
2023-03-08T18:06:59.234Z,99.90
2023-03-08T18:09:29.897Z,99.90
2023-03-08T18:12:00.310Z,99.90
2023-03-08T18:14:39.458Z,99.90
2023-03-08T18:17:14.232Z,99.90
2023-03-08T18:19:44.060Z,99.90
2023-03-08T18:22:14.097Z,99.90
2023-03-08T18:24:44.191Z,99.90
2023-03-08T18:27:14.376Z,99.90
2023-03-08T18:29:44.355Z,99.90
2023-03-08T18:32:16.804Z,99.90
2023-03-08T18:34:47.912Z,99.90
2023-03-08T18:37:18.256Z,99.90
2023-03-08T18:39:48.107Z,99.90
2023-03-08T18:42:17.880Z,99.90
2023-03-08T18:44:47.947Z,99.90
2023-03-08T18:47:20.711Z,99.90
2023-03-08T18:49:50.515Z,99.90
2023-03-08T18:52:20.617Z,99.90
2023-03-08T18:54:50.885Z,99.90
2023-03-08T18:57:21.284Z,99.90
2023-03-08T18:59:51.987Z,99.90
2023-03-08T19:02:28.250Z,99.90
2023-03-08T19:04:58.458Z,99.90
2023-03-08T19:07:28.443Z,99.90
2023-03-08T19:10:00.263Z,99.90
2023-03-08T19:12:33.703Z,99.90
2023-03-08T19:15:03.544Z,99.90
2023-03-08T19:17:36.004Z,99.90
2023-03-08T19:20:06.814Z,99.90
2023-03-08T19:22:36.933Z,99.90
2023-03-08T19:25:07.076Z,99.90
2023-03-08T19:27:37.479Z,99.90
2023-03-08T19:30:08.069Z,99.90
2023-03-08T19:32:42.618Z,99.90
2023-03-08T19:35:16.899Z,99.90
2023-03-08T19:37:47.160Z,99.90
2023-03-08T19:40:17.315Z,99.90
2023-03-08T19:42:47.386Z,99.90
2023-03-08T19:45:18.607Z,99.90
2023-03-08T19:47:51.074Z,99.90
2023-03-08T19:50:21.114Z,99.90
2023-03-08T19:52:50.989Z,99.90
2023-03-08T19:55:20.924Z,99.90
2023-03-08T19:57:50.634Z,99.90
2023-03-08T20:00:21.152Z,99.90
2023-03-08T20:02:53.794Z,99.90
2023-03-08T20:05:23.792Z,99.90
2023-03-08T20:07:53.544Z,99.90
2023-03-08T20:10:23.961Z,99.90
2023-03-08T20:12:54.224Z,99.90
2023-03-08T20:15:24.042Z,99.90
2023-03-08T20:17:57.221Z,99.90
2023-03-08T20:20:27.267Z,99.90
2023-03-08T20:22:57.132Z,99.90
2023-03-08T20:25:27.014Z,99.90
2023-03-08T20:27:57.672Z,99.90
2023-03-08T20:30:28.422Z,99.90
2023-03-08T20:33:01.737Z,99.90
2023-03-08T20:35:31.605Z,99.90
2023-03-08T20:38:01.600Z,99.90
2023-03-08T20:40:31.569Z,99.90
2023-03-08T20:43:01.466Z,99.90
2023-03-08T20:45:32.236Z,99.90
2023-03-08T20:48:04.661Z,99.90
2023-03-08T20:50:34.525Z,99.90
2023-03-08T20:53:04.412Z,99.90
2023-03-08T20:55:34.236Z,99.90
2023-03-08T20:58:05.457Z,99.90
2023-03-08T21:00:35.627Z,99.90
2023-03-08T21:03:08.420Z,99.90
2023-03-08T21:05:38.693Z,99.90
2023-03-08T21:08:09.238Z,99.90
2023-03-08T21:10:41.071Z,99.90
2023-03-08T21:13:13.491Z,99.90
2023-03-08T21:15:43.434Z,99.90
2023-03-08T21:18:15.913Z,99.90
2023-03-08T21:20:47.478Z,99.90
2023-03-08T21:23:23.804Z,99.90
2023-03-08T21:25:54.341Z,99.90
2023-03-08T21:28:24.652Z,99.90
2023-03-08T21:30:54.503Z,99.90
2023-03-08T21:33:27.980Z,99.90
2023-03-08T21:36:00.021Z,99.90
2023-03-08T21:38:30.520Z,99.90
2023-03-08T21:41:00.432Z,99.90
2023-03-08T21:43:30.606Z,99.90
2023-03-08T21:46:00.481Z,99.90
2023-03-08T21:48:32.856Z,99.90
2023-03-08T21:51:02.670Z,99.90
2023-03-08T21:53:33.130Z,99.90
2023-03-08T21:56:03.179Z,99.90
2023-03-08T21:58:33.170Z,99.90
2023-03-08T22:01:03.148Z,99.90
2023-03-08T22:03:36.032Z,99.90
2023-03-08T22:06:05.832Z,99.90
2023-03-08T22:08:35.788Z,99.90
2023-03-08T22:11:06.057Z,99.90
2023-03-08T22:13:37.228Z,99.90
2023-03-08T22:16:08.144Z,99.90
2023-03-08T22:18:40.966Z,99.90
2023-03-08T22:21:10.820Z,99.90
2023-03-08T22:23:40.725Z,99.90
2023-03-08T22:26:11.522Z,99.90
2023-03-08T22:28:41.693Z,99.90
2023-03-08T22:31:13.495Z,99.90
2023-03-08T22:33:46.353Z,99.90
2023-03-08T22:36:18.132Z,99.90
2023-03-08T22:38:48.642Z,99.90
2023-03-08T22:41:21.395Z,99.90
2023-03-08T22:43:52.152Z,99.90
2023-03-08T22:46:24.258Z,99.90
2023-03-08T22:48:59.483Z,99.90
2023-03-08T22:51:30.378Z,99.90
2023-03-08T22:54:04.020Z,99.90
2023-03-08T22:56:34.331Z,99.90
2023-03-08T22:59:05.044Z,99.90
2023-03-08T23:01:35.273Z,99.90
2023-03-08T23:04:10.198Z,99.90
2023-03-08T23:06:40.632Z,99.90
2023-03-08T23:09:13.250Z,99.90
2023-03-08T23:11:46.485Z,99.90
2023-03-08T23:14:17.838Z,99.90
2023-03-08T23:16:49.036Z,99.90
2023-03-08T23:19:23.997Z,99.90
2023-03-08T23:21:54.221Z,99.90
2023-03-08T23:24:24.775Z,99.90
2023-03-08T23:27:00.224Z,99.90
2023-03-08T23:29:30.246Z,99.90
2023-03-08T23:32:00.257Z,99.90
2023-03-08T23:34:32.694Z,99.90
2023-03-08T23:37:04.214Z,99.90
2023-03-08T23:39:34.341Z,99.90
2023-03-08T23:42:04.700Z,99.90
2023-03-08T23:44:34.580Z,99.90
2023-03-08T23:47:17.958Z,99.90
2023-03-08T23:49:51.865Z,99.90
2023-03-08T23:52:21.684Z,99.90
2023-03-08T23:54:51.697Z,99.90
2023-03-08T23:57:21.634Z,99.90
2023-03-08T23:59:51.496Z,99.90
